Station: Kadina

  Atmospheric Gas Attenuation - ITU Rec 676-11   --------------- db/100km ---------------
Date Time Temp RH % AH g/m3 Dew Point Wind Direction Speed kph Gust kph Barometer mB Rainfall Since 9am 24GHz 47GHz 76GHz 122GHz 134GHz 241GHz
25 00:40 15.6 83 11.04 12.7 15 17 1012.6 0 24.7 29.4 48.9 128.7 128.9 445.5
25 00:30 15.5 83 10.97 12.6 17 19 1012.5 0 24.6 29.3 48.6 128.0 128.1 442.6
25 00:20 15.4 81 10.64 12.2 15 17 1012.8 0 23.9 28.8 47.3 124.5 123.7 427.2
25 00:10 15.5 81 10.71 12.3 15 17 1013 0 24.0 28.9 47.5 125.1 124.5 430.1
25 00:00 15.7 80 10.7 12.3 17 17 1013.2 0 24.0 28.8 47.4 124.7 124.1 428.5
24 23:50 15.9 80 10.83 12.5 17 19 1013.4 0 24.2 28.9 47.8 125.9 125.6 433.8
24 23:40 15.9 80 10.83 12.5 17 17 1013.5 0 24.2 29.0 47.8 125.9 125.6 433.8
24 23:30 16.2 79 10.89 12.6 15 17 1013.5 0 24.4 29.0 47.9 126.1 125.9 435.1
24 23:20 16.2 79 10.89 12.6 15 17 1013.6 0 24.4 29.0 47.9 126.1 125.9 435.1
24 23:10 16.3 78 10.82 12.5 15 15 1013.8 0 24.2 28.8 47.6 125.2 124.8 431.2
24 23:00 16.4 76 10.61 12.2 15 17 1013.8 0 23.7 28.4 46.6 122.7 121.8 420.6
24 22:50 16.6 75 10.59 12.2 15 17 1013.8 0 23.7 28.3 46.4 122.2 121.2 418.6
24 22:40 16.8 73 10.44 11.9 15 15 1013.9 0 23.4 28.0 45.7 120.2 118.8 410.4
24 22:30 17 71 10.27 11.7 17 20 1014 0 23.0 27.7 44.9 118.0 116.3 401.4
24 22:20 17.1 68 9.9 11.2 17 17 1014 0 22.2 27.0 43.3 113.9 111.2 383.7
24 22:10 17.4 65 9.63 10.8 17 19 1014 0 21.6 26.5 42.1 110.6 107.2 369.8
24 22:00 17.7 62 9.35 10.3 15 19 1014.1 0 21.0 26.0 40.8 107.2 103.2 355.8
24 21:50 17.7 60 9.05 9.8 15 17 1014 0 20.4 25.5 39.7 104.1 99.3 342.3
24 21:40 18.1 58 8.96 9.7 13 15 1014.1 0 20.1 25.3 39.1 102.7 97.7 336.6
24 21:30 18.6 56 8.91 9.7 17 19 1014 0 20.0 25.0 38.7 101.5 96.5 332.3
24 21:20 19.2 55 9.07 9.9 19 20 1013.9 0 20.3 25.1 39.0 102.4 97.7 336.8
24 21:10 19.4 55 9.18 10.1 17 20 1013.9 0 20.5 25.2 39.3 103.2 98.8 340.7
24 21:00 20.1 54 9.39 10.5 20 24 1013.9 0 21.0 25.4 39.8 104.4 100.6 346.9
24 20:50 20.2 54 9.44 10.6 17 20 1013.9 0 21.1 25.4 39.9 104.8 101.1 348.6
24 20:40 20.2 56 9.79 11.1 13 13 1013.9 0 21.8 25.9 41.2 108.4 105.5 364.0
24 20:30 20.6 54 9.66 11 13 17 1013.8 0 21.5 25.6 40.5 106.5 103.3 356.4
24 20:20 21 52 9.52 10.8 13 13 1013.7 0 21.2 25.3 39.8 104.6 101.0 348.6
24 20:10 21.7 50 9.54 10.8 11 13 1013.6 0 21.2 25.1 39.5 103.8 100.4 346.4
24 20:00 22.1 49 9.56 10.9 17 20 1013.5 0 21.2 25.0 39.4 103.5 100.1 345.5
24 19:50 22.5 48 9.59 10.9 19 20 1013.3 0 21.3 25.0 39.3 103.3 99.9 345.0
24 19:40 22.9 47 9.6 11 24 26 1013.1 0 21.3 24.9 39.1 102.8 99.5 343.6
24 19:30 23.2 46 9.56 10.9 22 28 1013.1 0 21.2 24.7 38.9 102.1 98.7 340.6
24 19:20 23.9 44 9.52 10.9 22 24 1013 0 21.0 24.5 38.4 100.8 97.3 336.0
24 19:10 24.2 43 9.46 10.8 24 28 1012.9 0 20.9 24.3 38.0 99.8 96.2 332.3
24 19:00 24.4 43 9.57 11 22 30 1012.8 0 21.1 24.4 38.3 100.6 97.3 336.0
24 18:50 24.3 44 9.74 11.3 24 26 1012.8 0 21.5 24.7 39.0 102.4 99.4 343.4
24 18:40 24.8 43 9.79 11.4 22 24 1012.8 0 21.6 24.6 38.9 102.3 99.4 343.4
24 18:30 24.7 44 9.96 11.6 24 32 1012.8 0 21.9 24.9 39.6 104.0 101.6 350.9
24 18:20 24.8 43 9.79 11.4 24 28 1012.8 0 21.6 24.6 38.9 102.3 99.4 343.4
24 18:10 24.6 43 9.68 11.2 24 28 1013 0 21.3 24.5 38.6 101.5 98.4 339.7
24 18:00 25.2 42 9.78 11.4 24 32 1013 0 21.5 24.5 38.7 101.7 98.8 341.3
24 17:50 24.9 42 9.61 11.1 24 28 1013.1 0 21.2 24.3 38.2 100.4 97.2 335.6
24 17:40 25.6 40 9.52 11 22 28 1013.2 0 21.0 24.0 37.6 98.7 95.3 329.1
24 17:30 25 44 10.13 11.9 26 35 1013.2 0 22.3 25.1 40.1 105.3 103.2 356.8
24 17:20 24 48 10.44 12.3 26 32 1013.3 0 23.0 25.8 41.7 109.7 108.3 374.5
24 17:10 24.7 46 10.41 12.3 26 32 1013.4 0 22.9 25.6 41.2 108.5 107.0 370.0
24 17:00 24.2 47 10.34 12.2 28 33 1013.5 0 22.7 25.6 41.2 108.5 106.9 369.4
24 16:50 24.1 47 10.28 12.1 28 30 1013.7 0 22.6 25.6 41.1 108.0 106.3 367.3
24 16:40 23.7 50 10.69 12.7 26 30 1013.8 0 23.5 26.3 42.8 112.7 111.9 386.9
24 16:30 23.8 50 10.76 12.8 28 35 1013.9 0 23.6 26.4 43.0 113.3 112.6 389.4
24 16:20 23.3 50 10.45 12.3 28 33 1014 0 23.0 26.1 42.1 110.8 109.5 378.4
24 16:10 23.8 48 10.32 12.4 32 39 1014 0 22.7 25.7 41.4 108.9 107.2 370.5
24 16:00 23.2 49 10.19 11.9 28 39 1014.1 0 22.5 25.7 41.2 108.4 106.4 367.7
24 15:50 23.9 44 9.52 11.2 26 35 1014.3 0 21.0 24.5 38.4 100.9 97.4 336.4
24 15:40 23.3 46 9.62 11 32 35 1014.4 0 21.3 24.8 39.1 102.7 99.4 343.1
24 15:30 23.7 43 9.2 10.4 28 35 1014.6 0 20.4 24.1 37.4 98.1 93.9 324.0
24 15:20 23.3 44 9.2 10.4 30 35 1014.6 0 20.4 24.2 37.6 98.6 94.4 325.6
24 15:10 23 47 9.66 11.1 24 30 1014.8 0 21.4 25.0 39.4 103.5 100.3 346.2
24 15:00 22.5 47 9.39 10.6 28 35 1015 0 20.8 24.7 38.7 101.5 97.7 336.9
24 14:50 22.5 49 9.79 11.3 28 32 1015.1 0 21.7 25.3 40.1 105.4 102.5 354.0
24 14:40 22.2 52 10.21 11.9 32 39 1015.4 0 22.6 26.1 41.9 110.1 108.1 373.6
24 14:30 21.6 54 10.24 11.9 30 39 1015.5 0 22.7 26.3 42.3 111.2 109.4 377.8
24 14:20 21.8 54 10.36 12.1 32 35 1015.6 0 22.9 26.4 42.7 112.2 110.6 382.2
24 14:10 21.9 54 10.42 12.2 30 37 1015.7 0 23.0 26.5 42.9 112.7 111.2 384.3
24 14:00 21.7 53 10.11 11.7 30 37 1015.8 0 22.4 26.1 41.8 109.8 107.6 371.7
24 13:50 22.4 53 10.52 12.4 28 32 1016 0 23.2 26.5 43.0 113.0 111.8 386.4
24 13:40 21.9 53 10.23 11.9 28 33 1016.2 0 22.6 26.2 42.1 110.8 108.9 376.1
24 13:30 20.7 56 10.08 11.6 30 43 1016.2 0 22.4 26.3 42.2 110.9 108.6 375.2
24 13:20 21.5 55 10.37 12.1 26 32 1016.3 0 22.9 26.6 42.9 112.8 111.2 384.3
24 13:10 21.7 55 10.49 12.3 28 30 1016.4 0 23.2 26.7 43.3 113.8 112.4 388.6
24 13:00 21.6 51 9.67 11 26 37 1016.4 0 21.5 25.5 40.2 105.6 102.3 353.2
24 12:50 20.3 57 10.02 11.5 30 35 1016.7 0 22.3 26.4 42.2 110.9 108.5 374.6
24 12:40 20.5 58 10.32 12 28 32 1016.9 0 22.9 26.8 43.3 113.8 112.0 387.1
24 12:30 20.5 57 10.14 11.7 30 39 1016.8 0 22.5 26.5 42.6 111.9 109.7 379.0
24 12:20 20.1 56 9.73 11.1 30 35 1017 0 21.7 26.0 41.2 108.2 105.1 362.7
24 12:10 20.5 56 9.96 11.4 28 35 1017 0 22.1 26.2 41.9 110.1 107.5 371.0
24 12:00 21.2 53 9.82 11.2 22 30 1016.9 0 21.8 25.8 41.0 107.7 104.8 361.6
24 11:50 21.1 53 9.76 11.2 17 20 1017.1 0 21.7 25.8 40.8 107.2 104.2 359.5
24 11:40 21.2 52 9.64 11 22 24 1017.1 0 21.4 25.5 40.3 105.9 102.5 353.8
24 11:30 21.3 53 9.88 11.3 20 28 1017.1 0 21.9 25.9 41.2 108.2 105.4 363.9
24 11:20 21.1 52 9.58 10.9 22 24 1017.2 0 21.3 25.5 40.1 105.4 101.9 351.7
24 11:10 21.9 50 9.65 11 22 26 1017.2 0 21.4 25.4 40.0 105.0 101.8 351.2
24 11:00 21.3 48 8.95 9.9 13 20 1017.2 0 20.0 24.5 37.7 98.9 94.0 323.8
24 10:50 21 50 9.16 10.2 13 15 1017.4 0 20.4 24.9 38.6 101.3 96.9 334.1
24 10:40 20.3 50 8.79 9.5 6 7 1017.6 0 19.7 24.5 37.6 98.6 93.2 321.1
24 10:30 20.2 52 9.09 10 11 19 1017.7 0 20.3 25.0 38.8 101.7 97.0 334.5
24 10:20 19.7 55 9.34 10.4 11 13 1018 0 20.9 25.5 40.0 104.9 100.8 347.6
24 10:10 19.3 54 8.96 9.8 11 13 1018.1 0 20.1 25.1 38.7 101.6 96.6 332.7
24 10:00 19.1 58 9.51 10.6 9 17 1018 0 21.3 26.0 40.9 107.4 103.7 357.8
24 09:50 18.7 60 9.61 10.8 11 15 1018.1 0 21.5 26.3 41.5 109.0 105.5 364.1
24 09:40 18.1 62 9.58 10.7 9 11 1018.2 0 21.5 26.4 41.7 109.5 106.0 365.5
24 09:30 18 64 9.83 11.1 13 17 1018.2 0 22.0 26.8 42.8 112.3 109.4 377.4
24 09:20 17.4 65 9.63 10.8 9 11 1018.4 0 21.6 26.7 42.3 111.1 107.6 371.1
24 09:10 17.6 66 9.9 11.2 13 15 1018.4 0 22.2 27.1 43.3 113.7 110.9 382.6
24 09:00 16.5 68 9.55 10.6 9 15 1018.5 0 21.5 26.8 42.5 111.5 107.8 371.7
24 08:50 16.4 70 9.77 10.9 13 15 1018.7 0.2 21.9 27.2 43.4 114.0 110.9 382.5
24 08:40 15.8 71 9.56 10.6 9 9 1018.6 0.2 21.5 27.1 42.9 112.6 108.9 375.5
24 08:30 15.3 73 9.53 10.5 7 9 1018.3 0.2 21.5 27.2 43.0 113.0 109.2 376.4
24 08:20 14.9 74 9.43 10.3 9 9 1018.4 0.2 21.3 27.1 42.8 112.5 108.4 373.7
24 08:10 14.4 77 9.52 10.4 6 7 1018.2 0.2 21.5 27.4 43.5 114.2 110.3 380.3

Last Refresh: 25-Nov-2020 00:51:34

Most of the information presented on this site is sourced from the Bureau of Meteorology.  Copyright in all material sourced from the Bureau of Meteorology resides with the Commonwealth of Australia.